Time;durP1;ratioP1;P1;durP2;ratioP2;P2;SDS_P1;SDS_P2;PMS_P1;PMS_P2;Temp;Humidity;BMP_temperature;BMP_pressure;BME280_temperature;BME280_humidity;BME280_pressure;Samples;Min_cycle;Max_cycle;Signal;HPM_P1;HPM_P2
2021/10/27 00:00:54;;;;;;;5.13;3.10;;;;;;;;;;5035419;28;20045;-80
2021/10/27 00:03:21;;;;;;;6.72;3.17;;;;;;;;;;5035174;28;20041;-80
2021/10/27 00:05:47;;;;;;;8.40;4.10;;;;;;;;;;5034976;28;20049;-80
2021/10/27 00:08:15;;;;;;;5.00;2.70;;;;;;;;;;5034313;28;20410;-80
2021/10/27 00:10:42;;;;;;;5.85;3.50;;;;;;;;;;5023356;28;20052;-80
2021/10/27 00:13:09;;;;;;;7.82;3.60;;;;;;;;;;5027259;28;20047;-80
2021/10/27 00:15:35;;;;;;;5.30;2.70;;;;;;;;;;5025455;28;20498;-80
2021/10/27 00:18:02;;;;;;;6.78;3.38;;;;;;;;;;5031145;28;20068;-80
2021/10/27 00:20:28;;;;;;;6.13;2.90;;;;;;;;;;5034259;28;20410;-80
2021/10/27 00:22:55;;;;;;;5.85;3.00;;;;;;;;;;5032723;28;20397;-79
2021/10/27 00:25:23;;;;;;;4.80;2.80;;;;;;;;;;5031472;28;20046;-79
2021/10/27 00:27:49;;;;;;;5.05;3.15;;;;;;;;;;5032714;28;20052;-80
2021/10/27 00:30:15;;;;;;;5.75;3.08;;;;;;;;;;5032430;28;20415;-80
2021/10/27 00:32:42;;;;;;;5.10;3.35;;;;;;;;;;5032951;28;20049;-80
2021/10/27 00:35:09;;;;;;;7.22;3.38;;;;;;;;;;5033021;28;20053;-80
2021/10/27 00:37:35;;;;;;;5.15;3.20;;;;;;;;;;5033107;28;20041;-80
2021/10/27 00:40:02;;;;;;;4.25;3.25;;;;;;;;;;5033564;28;20056;-80
2021/10/27 00:42:31;;;;;;;5.43;2.97;;;;;;;;;;5032156;28;20406;-80
2021/10/27 00:44:57;;;;;;;6.18;3.10;;;;;;;;;;5027884;28;20092;-80
2021/10/27 00:47:24;;;;;;;5.10;2.70;;;;;;;;;;5033044;28;20078;-80
2021/10/27 00:49:50;;;;;;;4.93;2.65;;;;;;;;;;5033379;28;20065;-80
2021/10/27 00:52:18;;;;;;;5.85;3.22;;;;;;;;;;5031536;28;20482;-80
2021/10/27 00:54:47;;;;;;;3.80;2.38;;;;;;;;;;5031645;28;20046;-80
2021/10/27 00:57:14;;;;;;;4.55;2.85;;;;;;;;;;5032612;28;20517;-80
2021/10/27 00:59:44;;;;;;;6.10;2.60;;;;;;;;;;5033122;28;20056;-80
2021/10/27 01:02:11;;;;;;;5.95;3.05;;;;;;;;;;5033194;28;20061;-80
2021/10/27 01:04:38;;;;;;;6.75;2.85;;;;;;;;;;5032620;28;20042;-80
2021/10/27 01:07:05;;;;;;;8.73;3.42;;;;;;;;;;5033230;28;20045;-80
2021/10/27 01:09:33;;;;;;;4.20;2.55;;;;;;;;;;5032731;28;20045;-80
2021/10/27 01:12:00;;;;;;;5.15;2.88;;;;;;;;;;5032701;28;20052;-80
2021/10/27 01:14:34;;;;;;;5.22;2.97;;;;;;;;;;5032383;28;20042;-80
2021/10/27 01:17:02;;;;;;;8.45;3.47;;;;;;;;;;5027182;28;20080;-80
2021/10/27 01:19:31;;;;;;;4.80;2.75;;;;;;;;;;5032910;28;20037;-80
2021/10/27 01:21:59;;;;;;;5.80;3.22;;;;;;;;;;5033121;28;20050;-80
2021/10/27 01:24:25;;;;;;;5.93;3.50;;;;;;;;;;5031515;28;20053;-80
2021/10/27 01:26:52;;;;;;;5.22;2.63;;;;;;;;;;5035857;28;20057;-80
2021/10/27 01:29:18;;;;;;;4.55;2.88;;;;;;;;;;5033584;28;20053;-80
2021/10/27 01:31:45;;;;;;;5.72;2.88;;;;;;;;;;5033017;28;20045;-80
2021/10/27 01:34:12;;;;;;;6.10;2.80;;;;;;;;;;5033128;28;20049;-80
2021/10/27 01:36:38;;;;;;;4.60;3.28;;;;;;;;;;5032345;28;20077;-80
2021/10/27 01:39:07;;;;;;;5.18;2.83;;;;;;;;;;5032753;28;20055;-80
2021/10/27 01:41:33;;;;;;;6.82;3.83;;;;;;;;;;5032763;28;20079;-80
2021/10/27 01:44:00;;;;;;;5.00;2.88;;;;;;;;;;5033033;28;20045;-80
2021/10/27 01:46:27;;;;;;;5.70;2.97;;;;;;;;;;5032753;28;20052;-81
2021/10/27 01:48:54;;;;;;;6.30;3.67;;;;;;;;;;5033480;28;20049;-81
2021/10/27 01:51:20;;;;;;;4.13;2.80;;;;;;;;;;5014749;28;20053;-80
2021/10/27 01:53:46;;;;;;;5.93;2.88;;;;;;;;;;5032566;28;20513;-81
2021/10/27 01:56:14;;;;;;;4.93;2.70;;;;;;;;;;5036393;28;20042;-80
2021/10/27 01:58:41;;;;;;;6.20;3.58;;;;;;;;;;5036653;28;20046;-80
2021/10/27 02:01:07;;;;;;;4.55;2.72;;;;;;;;;;5033759;28;20049;-80
2021/10/27 02:03:34;;;;;;;6.28;3.00;;;;;;;;;;5036244;28;20053;-80
2021/10/27 02:06:00;;;;;;;5.30;3.58;;;;;;;;;;5038521;28;20049;-80
2021/10/27 02:08:27;;;;;;;5.97;3.35;;;;;;;;;;5036462;28;20041;-80
2021/10/27 02:10:53;;;;;;;5.70;2.67;;;;;;;;;;5035220;28;20041;-80
2021/10/27 02:13:21;;;;;;;5.53;2.80;;;;;;;;;;5036038;28;20048;-80
2021/10/27 02:15:47;;;;;;;5.20;3.00;;;;;;;;;;5035973;28;20045;-80
2021/10/27 02:18:14;;;;;;;5.13;3.00;;;;;;;;;;5036511;28;20048;-80
2021/10/27 02:20:40;;;;;;;6.60;3.00;;;;;;;;;;5035483;28;20490;-81
2021/10/27 02:23:07;;;;;;;6.60;3.08;;;;;;;;;;5035998;28;20060;-80
2021/10/27 02:25:33;;;;;;;7.38;3.72;;;;;;;;;;5034926;28;20069;-80
2021/10/27 02:27:59;;;;;;;5.38;3.03;;;;;;;;;;5036120;28;20041;-80
2021/10/27 02:30:28;;;;;;;10.43;4.80;;;;;;;;;;5034540;28;20050;-80
2021/10/27 02:32:54;;;;;;;6.18;3.92;;;;;;;;;;5030652;28;20096;-80
2021/10/27 02:35:20;;;;;;;7.82;3.97;;;;;;;;;;5035556;28;20415;-80
2021/10/27 02:37:47;;;;;;;7.13;3.38;;;;;;;;;;5031787;28;20482;-80
2021/10/27 02:40:14;;;;;;;8.90;3.70;;;;;;;;;;5036656;28;20064;-80
2021/10/27 02:42:41;;;;;;;7.10;3.75;;;;;;;;;;5035357;28;20504;-79
2021/10/27 02:45:09;;;;;;;5.30;3.28;;;;;;;;;;5035156;28;20042;-80
2021/10/27 02:47:36;;;;;;;8.70;3.05;;;;;;;;;;5035006;28;20128;-80
2021/10/27 02:50:03;;;;;;;7.50;3.45;;;;;;;;;;5035719;28;20049;-80
2021/10/27 02:52:30;;;;;;;6.82;3.85;;;;;;;;;;5034857;28;20052;-80
2021/10/27 02:54:57;;;;;;;6.70;3.70;;;;;;;;;;5034722;28;20046;-80
2021/10/27 02:57:23;;;;;;;6.93;3.53;;;;;;;;;;5034725;28;20120;-80
2021/10/27 02:59:50;;;;;;;7.57;3.78;;;;;;;;;;5034741;28;20490;-80
2021/10/27 03:02:16;;;;;;;8.27;3.75;;;;;;;;;;5030767;28;20053;-80
2021/10/27 03:04:44;;;;;;;7.35;2.92;;;;;;;;;;5031465;28;20049;-80
2021/10/27 03:07:10;;;;;;;8.80;3.80;;;;;;;;;;5029242;28;20057;-80
2021/10/27 03:09:37;;;;;;;10.68;3.53;;;;;;;;;;5035136;28;20041;-80
2021/10/27 03:12:04;;;;;;;13.07;4.82;;;;;;;;;;5034200;28;20068;-80
2021/10/27 03:14:31;;;;;;;12.30;4.97;;;;;;;;;;5027999;28;20045;-80
2021/10/27 03:16:57;;;;;;;10.07;4.93;;;;;;;;;;5034849;28;20038;-80
2021/10/27 03:19:24;;;;;;;9.30;4.43;;;;;;;;;;5034462;28;20038;-80
2021/10/27 03:21:52;;;;;;;8.77;4.43;;;;;;;;;;5033887;28;20049;-80
2021/10/27 03:24:18;;;;;;;9.68;4.50;;;;;;;;;;5029536;28;20381;-80
2021/10/27 03:26:45;;;;;;;10.93;4.72;;;;;;;;;;5049194;28;20041;-80
2021/10/27 03:29:11;;;;;;;8.82;4.22;;;;;;;;;;5034808;28;20076;-80
2021/10/27 03:31:38;;;;;;;14.30;5.70;;;;;;;;;;5037050;28;20041;-79
2021/10/27 03:34:04;;;;;;;8.63;4.22;;;;;;;;;;5034654;28;20049;-80
2021/10/27 03:36:30;;;;;;;10.50;5.03;;;;;;;;;;5033768;28;20037;-80
2021/10/27 03:38:58;;;;;;;10.07;3.95;;;;;;;;;;5039543;28;20513;-80
2021/10/27 03:41:25;;;;;;;11.18;4.75;;;;;;;;;;5033498;28;20505;-80
2021/10/27 03:43:51;;;;;;;8.35;4.60;;;;;;;;;;5034165;28;20049;-80
2021/10/27 03:46:18;;;;;;;9.32;3.95;;;;;;;;;;5033998;28;20046;-80
2021/10/27 03:48:44;;;;;;;8.18;4.07;;;;;;;;;;5033404;28;20050;-79
2021/10/27 03:51:13;;;;;;;10.30;3.70;;;;;;;;;;5034321;28;20050;-80
2021/10/27 03:53:39;;;;;;;8.57;4.72;;;;;;;;;;5031675;28;20093;-80
2021/10/27 03:56:07;;;;;;;8.55;4.38;;;;;;;;;;5033516;28;20069;-80
2021/10/27 03:58:34;;;;;;;9.70;4.85;;;;;;;;;;5033988;28;20049;-80
2021/10/27 04:01:01;;;;;;;8.55;4.20;;;;;;;;;;5033449;28;20164;-80
2021/10/27 04:03:28;;;;;;;8.93;4.70;;;;;;;;;;5035771;28;20051;-80
2021/10/27 04:05:55;;;;;;;9.85;4.90;;;;;;;;;;5024422;28;20041;-80
2021/10/27 04:08:21;;;;;;;10.55;4.78;;;;;;;;;;5033512;28;20050;-80
2021/10/27 04:10:48;;;;;;;8.38;4.00;;;;;;;;;;5033954;28;20052;-80
2021/10/27 04:13:17;;;;;;;10.85;5.00;;;;;;;;;;5033396;28;20056;-80
2021/10/27 04:15:44;;;;;;;9.80;4.53;;;;;;;;;;5033127;28;20049;-80
2021/10/27 04:18:11;;;;;;;12.82;4.75;;;;;;;;;;5030621;28;20502;-80
2021/10/27 04:20:38;;;;;;;8.93;4.45;;;;;;;;;;5034285;28;20049;-81
2021/10/27 04:23:05;;;;;;;10.60;4.55;;;;;;;;;;5032363;28;20417;-80
2021/10/27 04:25:31;;;;;;;12.30;5.82;;;;;;;;;;5034199;28;20045;-80
2021/10/27 04:27:58;;;;;;;10.02;5.70;;;;;;;;;;5034098;28;20056;-80
2021/10/27 04:30:26;;;;;;;11.27;5.30;;;;;;;;;;5034142;28;20064;-80
2021/10/27 04:32:53;;;;;;;12.15;5.97;;;;;;;;;;5028564;28;20042;-81
2021/10/27 04:35:19;;;;;;;10.88;5.80;;;;;;;;;;5035116;28;20052;-81
2021/10/27 04:37:46;;;;;;;11.38;5.60;;;;;;;;;;5034680;28;20095;-81
2021/10/27 04:40:15;;;;;;;11.40;5.30;;;;;;;;;;5035363;28;20052;-80
2021/10/27 04:42:42;;;;;;;10.93;5.75;;;;;;;;;;5034766;28;20045;-81
2021/10/27 04:45:09;;;;;;;15.27;5.95;;;;;;;;;;5034787;28;20060;-80
2021/10/27 04:47:37;;;;;;;15.07;7.30;;;;;;;;;;5035626;28;20045;-80
2021/10/27 04:50:05;;;;;;;8.95;5.25;;;;;;;;;;5035392;28;20111;-81
2021/10/27 04:52:32;;;;;;;13.52;5.72;;;;;;;;;;5029078;28;20041;-80
2021/10/27 04:54:58;;;;;;;9.82;5.80;;;;;;;;;;4997802;28;20798;-81
2021/10/27 04:57:25;;;;;;;8.13;4.68;;;;;;;;;;5025746;28;20046;-81
2021/10/27 04:59:51;;;;;;;9.80;4.75;;;;;;;;;;5035752;28;20037;-81
2021/10/27 05:02:18;;;;;;;9.43;5.43;;;;;;;;;;5034518;28;20405;-81
2021/10/27 05:04:46;;;;;;;19.10;5.75;;;;;;;;;;5032814;28;20050;-81
2021/10/27 05:07:15;;;;;;;15.13;5.15;;;;;;;;;;5033517;28;20578;-81
2021/10/27 05:09:42;;;;;;;14.20;6.22;;;;;;;;;;5033937;28;20076;-81
2021/10/27 05:12:09;;;;;;;14.75;6.07;;;;;;;;;;5033660;28;20045;-81
2021/10/27 05:14:37;;;;;;;10.88;5.70;;;;;;;;;;5033194;28;20049;-81
2021/10/27 05:17:06;;;;;;;17.92;6.90;;;;;;;;;;5033241;28;20084;-81
2021/10/27 05:19:32;;;;;;;11.15;5.07;;;;;;;;;;5033660;28;20091;-81
2021/10/27 05:22:00;;;;;;;17.60;6.95;;;;;;;;;;5033612;28;20046;-81
2021/10/27 05:24:26;;;;;;;46.92;13.23;;;;;;;;;;5033210;28;20056;-81
2021/10/27 05:26:53;;;;;;;25.27;9.32;;;;;;;;;;5034202;28;20053;-81
2021/10/27 05:29:20;;;;;;;42.20;9.32;;;;;;;;;;5035033;28;20045;-81
2021/10/27 05:31:46;;;;;;;21.10;8.05;;;;;;;;;;5036747;28;20041;-81
2021/10/27 05:34:13;;;;;;;20.90;8.10;;;;;;;;;;5037554;28;20056;-81
2021/10/27 05:36:39;;;;;;;17.02;7.72;;;;;;;;;;5036694;28;20501;-81
2021/10/27 05:39:07;;;;;;;23.77;7.15;;;;;;;;;;5037143;28;20038;-81
2021/10/27 05:41:34;;;;;;;16.20;7.90;;;;;;;;;;5019411;28;20456;-81
2021/10/27 05:44:01;;;;;;;18.50;7.38;;;;;;;;;;5036996;28;20049;-81
2021/10/27 05:46:28;;;;;;;19.92;8.10;;;;;;;;;;5036816;28;20099;-80
2021/10/27 05:49:02;;;;;;;15.50;7.63;;;;;;;;;;5036481;28;20053;-81
2021/10/27 05:51:39;;;;;;;21.05;10.25;;;;;;;;;;5036227;28;20504;-81
2021/10/27 05:56:51;;;;;;;25.67;11.60;;;;;;;;;;5036438;28;20416;-81
2021/10/27 05:59:17;;;;;;;28.60;8.13;;;;;;;;;;5016723;28;20056;-81
2021/10/27 06:01:44;;;;;;;34.22;8.23;;;;;;;;;;5035413;28;20271;-81
2021/10/27 06:04:10;;;;;;;16.25;6.78;;;;;;;;;;5036466;28;20053;-81
2021/10/27 06:06:37;;;;;;;15.93;6.57;;;;;;;;;;5036873;28;20050;-81
2021/10/27 06:09:04;;;;;;;16.33;6.15;;;;;;;;;;5036860;28;20060;-81
2021/10/27 06:11:33;;;;;;;12.00;6.57;;;;;;;;;;5036184;28;20060;-81
2021/10/27 06:14:00;;;;;;;24.92;8.13;;;;;;;;;;5031794;28;20508;-81
2021/10/27 06:16:27;;;;;;;17.65;7.45;;;;;;;;;;5035953;28;20049;-81
2021/10/27 06:18:53;;;;;;;19.92;8.05;;;;;;;;;;5036077;28;20068;-81
2021/10/27 06:21:20;;;;;;;17.92;7.88;;;;;;;;;;5035380;28;20041;-81
2021/10/27 06:23:46;;;;;;;21.48;7.28;;;;;;;;;;5035764;28;20045;-81
2021/10/27 06:26:13;;;;;;;16.15;7.57;;;;;;;;;;5038235;28;20052;-81
2021/10/27 06:28:45;;;;;;;16.27;7.50;;;;;;;;;;5037053;28;20045;-81
2021/10/27 06:31:15;;;;;;;15.85;7.45;;;;;;;;;;5037294;28;20073;-81
2021/10/27 06:33:49;;;;;;;14.05;7.28;;;;;;;;;;5036610;28;20050;-81
2021/10/27 06:36:20;;;;;;;15.35;7.80;;;;;;;;;;5036363;28;20477;-81
2021/10/27 06:46:59;;;;;;;19.63;8.80;;;;;;;;;;5028931;28;20052;-81
2021/10/27 06:49:27;;;;;;;20.95;11.20;;;;;;;;;;5035741;28;20057;-81
2021/10/27 06:51:54;;;;;;;21.00;8.93;;;;;;;;;;5035709;28;20508;-81
2021/10/27 06:54:21;;;;;;;17.90;7.43;;;;;;;;;;5035874;28;20049;-81
2021/10/27 06:56:47;;;;;;;16.25;6.93;;;;;;;;;;5036010;28;20045;-81
2021/10/27 06:59:19;;;;;;;14.98;7.05;;;;;;;;;;5036162;28;20046;-81
2021/10/27 07:04:43;;;;;;;14.65;7.95;;;;;;;;;;5009615;28;20511;-81
2021/10/27 07:15:21;;;;;;;19.17;8.90;;;;;;;;;;5036862;28;20071;-82
2021/10/27 07:17:51;;;;;;;44.80;10.15;;;;;;;;;;5036283;28;20100;-81
2021/10/27 07:20:18;;;;;;;24.80;10.85;;;;;;;;;;5035068;28;20037;-81
2021/10/27 07:22:44;;;;;;;23.25;8.43;;;;;;;;;;5034444;28;20041;-81
2021/10/27 07:25:12;;;;;;;22.45;9.02;;;;;;;;;;5034790;28;20076;-81
2021/10/27 07:27:38;;;;;;;26.23;10.07;;;;;;;;;;5034754;28;20088;-82
2021/10/27 07:30:06;;;;;;;25.70;9.02;;;;;;;;;;5034092;28;20077;-81
2021/10/27 07:32:33;;;;;;;19.95;8.65;;;;;;;;;;5034798;28;20099;-81
2021/10/27 07:35:03;;;;;;;24.55;10.57;;;;;;;;;;5033665;28;20052;-81
2021/10/27 07:43:01;;;;;;;19.63;9.77;;;;;;;;;;5034107;28;20139;-81
2021/10/27 07:45:28;;;;;;;25.67;9.38;;;;;;;;;;5034350;28;20049;-79
2021/10/27 07:47:55;;;;;;;22.00;10.20;;;;;;;;;;5034002;28;20045;-81
2021/10/27 07:50:24;;;;;;;27.58;11.30;;;;;;;;;;5034902;28;20053;-81
2021/10/27 07:52:51;;;;;;;16.63;9.05;;;;;;;;;;5033639;28;20045;-79
2021/10/27 07:55:17;;;;;;;25.85;9.48;;;;;;;;;;5033670;28;20076;-79
2021/10/27 07:57:44;;;;;;;16.25;9.45;;;;;;;;;;5033744;28;20053;-79
2021/10/27 08:00:12;;;;;;;26.15;11.68;;;;;;;;;;5032733;28;20065;-81
2021/10/27 08:02:39;;;;;;;24.13;10.02;;;;;;;;;;5031682;28;20128;-82
2021/10/27 08:05:07;;;;;;;22.85;10.38;;;;;;;;;;5036355;28;20053;-79
2021/10/27 08:07:41;;;;;;;22.08;9.68;;;;;;;;;;5036750;28;20041;-79
2021/10/27 08:10:09;;;;;;;17.60;10.00;;;;;;;;;;5037478;28;20058;-79
2021/10/27 08:12:35;;;;;;;22.27;10.32;;;;;;;;;;5036192;28;20054;-82
2021/10/27 08:15:02;;;;;;;20.13;10.30;;;;;;;;;;5037021;28;20046;-82
2021/10/27 08:17:28;;;;;;;18.55;10.05;;;;;;;;;;5035267;28;20045;-82
2021/10/27 08:19:55;;;;;;;18.05;10.15;;;;;;;;;;5037419;28;20382;-80
2021/10/27 08:22:21;;;;;;;22.00;10.65;;;;;;;;;;5036825;28;20060;-79
2021/10/27 08:24:51;;;;;;;16.10;10.32;;;;;;;;;;5036142;28;20049;-79
2021/10/27 08:27:20;;;;;;;19.90;9.80;;;;;;;;;;5036770;28;20042;-79
2021/10/27 08:29:47;;;;;;;19.75;10.38;;;;;;;;;;5035924;28;20124;-79
2021/10/27 08:32:21;;;;;;;16.85;9.43;;;;;;;;;;5036973;28;20440;-80
2021/10/27 08:34:48;;;;;;;18.83;10.20;;;;;;;;;;5036923;28;20122;-80
2021/10/27 08:37:16;;;;;;;21.95;10.95;;;;;;;;;;5036544;28;20049;-80
2021/10/27 08:39:43;;;;;;;22.75;10.13;;;;;;;;;;5037097;28;20041;-80
2021/10/27 08:42:12;;;;;;;16.33;10.52;;;;;;;;;;5036245;28;20541;-79
2021/10/27 08:44:38;;;;;;;26.05;11.02;;;;;;;;;;5036618;28;20061;-79
2021/10/27 08:47:05;;;;;;;22.38;10.27;;;;;;;;;;5036265;28;20053;-80
2021/10/27 08:49:31;;;;;;;24.92;10.52;;;;;;;;;;5036789;28;20046;-80
2021/10/27 08:51:59;;;;;;;16.95;11.10;;;;;;;;;;5036578;28;20067;-83
2021/10/27 08:54:27;;;;;;;17.52;10.38;;;;;;;;;;5036709;28;20042;-82
2021/10/27 08:56:56;;;;;;;18.25;10.80;;;;;;;;;;5036894;28;20064;-80
2021/10/27 08:59:32;;;;;;;14.43;9.23;;;;;;;;;;5036687;28;20567;-80
2021/10/27 09:02:17;;;;;;;18.65;10.80;;;;;;;;;;5034308;28;20049;-80
2021/10/27 09:07:33;;;;;;;16.35;10.43;;;;;;;;;;5028988;28;20133;-80
2021/10/27 09:10:32;;;;;;;17.83;9.95;;;;;;;;;;5032178;28;20049;-80
2021/10/27 09:15:57;;;;;;;25.15;11.73;;;;;;;;;;5023638;28;20143;-80
2021/10/27 09:35:11;;;;;;;23.80;12.07;;;;;;;;;;5039583;28;20056;-80
2021/10/27 09:43:36;;;;;;;20.98;11.50;;;;;;;;;;5031288;28;20053;-81
2021/10/27 09:46:42;;;;;;;20.48;11.63;;;;;;;;;;5039622;28;20132;-80
2021/10/27 09:55:43;;;;;;;22.00;11.93;;;;;;;;;;4939719;29;20054;-80
2021/10/27 10:06:28;;;;;;;29.63;15.57;;;;;;;;;;5038336;28;20060;-80
2021/10/27 10:08:54;;;;;;;21.55;14.93;;;;;;;;;;5037951;28;20046;-80
2021/10/27 10:11:22;;;;;;;23.23;13.25;;;;;;;;;;5037376;28;20057;-80
2021/10/27 10:13:51;;;;;;;20.60;13.52;;;;;;;;;;5037883;28;20124;-80
2021/10/27 10:16:18;;;;;;;20.77;13.07;;;;;;;;;;5037525;28;20128;-80
2021/10/27 10:18:46;;;;;;;21.63;14.00;;;;;;;;;;5038434;28;20103;-81
2021/10/27 10:21:14;;;;;;;18.95;12.52;;;;;;;;;;5038172;28;20045;-80
2021/10/27 10:23:42;;;;;;;20.83;13.02;;;;;;;;;;5038170;28;20425;-80
2021/10/27 10:26:08;;;;;;;22.40;13.32;;;;;;;;;;5030245;28;20050;-81
2021/10/27 10:28:38;;;;;;;23.63;14.38;;;;;;;;;;5036256;28;20056;-80
2021/10/27 10:31:07;;;;;;;25.45;15.10;;;;;;;;;;5037945;28;20049;-80
2021/10/27 10:33:40;;;;;;;20.30;13.48;;;;;;;;;;5034499;28;20073;-80
2021/10/27 10:36:10;;;;;;;24.27;15.27;;;;;;;;;;5037076;28;20050;-81
2021/10/27 10:38:46;;;;;;;24.75;15.45;;;;;;;;;;5037101;28;20060;-80
2021/10/27 10:41:26;;;;;;;28.30;16.45;;;;;;;;;;5030997;28;20120;-80
2021/10/27 10:58:13;;;;;;;29.63;17.50;;;;;;;;;;5037092;28;20103;-80
2021/10/27 11:01:08;;;;;;;30.40;16.77;;;;;;;;;;5036884;28;20088;-80
2021/10/27 11:03:58;;;;;;;28.13;15.75;;;;;;;;;;5027592;28;20131;-80
2021/10/27 11:37:43;;;;;;;32.83;19.23;;;;;;;;;;5028928;28;20103;-80
2021/10/27 11:40:24;;;;;;;35.00;18.80;;;;;;;;;;5036570;28;20049;-80
2021/10/27 11:42:52;;;;;;;31.48;18.38;;;;;;;;;;5037081;28;20046;-81
2021/10/27 11:45:24;;;;;;;34.33;18.60;;;;;;;;;;5019306;28;20072;-80
2021/10/27 11:47:55;;;;;;;31.23;20.00;;;;;;;;;;5033506;28;20049;-81
2021/10/27 11:50:23;;;;;;;28.27;18.27;;;;;;;;;;5036514;28;20046;-80
2021/10/27 11:52:52;;;;;;;27.85;17.20;;;;;;;;;;5036815;28;20104;-81
2021/10/27 11:55:20;;;;;;;30.08;19.08;;;;;;;;;;5030786;28;20046;-80
2021/10/27 11:57:47;;;;;;;27.00;16.27;;;;;;;;;;5018025;28;20057;-81
2021/10/27 12:00:24;;;;;;;24.88;17.23;;;;;;;;;;5018897;28;20072;-81
2021/10/27 12:02:56;;;;;;;23.08;16.15;;;;;;;;;;5037417;28;20150;-81
2021/10/27 12:05:23;;;;;;;24.40;15.25;;;;;;;;;;5036802;28;20092;-81
2021/10/27 12:08:14;;;;;;;24.52;15.63;;;;;;;;;;5025633;28;20044;-80
2021/10/27 12:10:55;;;;;;;21.50;15.40;;;;;;;;;;5033360;28;20450;-80
2021/10/27 12:13:39;;;;;;;24.90;15.30;;;;;;;;;;5035836;28;20080;-80
2021/10/27 12:16:26;;;;;;;20.98;13.98;;;;;;;;;;5035180;28;20413;-81
2021/10/27 12:18:58;;;;;;;21.73;14.48;;;;;;;;;;5035624;28;20119;-80
2021/10/27 12:21:26;;;;;;;25.27;14.30;;;;;;;;;;5035351;28;20060;-81
2021/10/27 12:23:53;;;;;;;22.33;14.35;;;;;;;;;;5036022;28;20498;-80
2021/10/27 12:26:21;;;;;;;20.52;14.52;;;;;;;;;;5035309;28;20046;-80
2021/10/27 12:28:51;;;;;;;22.02;14.30;;;;;;;;;;5034935;28;20041;-80
2021/10/27 12:31:19;;;;;;;20.52;13.90;;;;;;;;;;5035949;28;20050;-81
2021/10/27 12:33:46;;;;;;;22.00;13.57;;;;;;;;;;5035702;28;20523;-80
2021/10/27 12:36:25;;;;;;;20.65;13.98;;;;;;;;;;5035139;28;20436;-81
2021/10/27 12:39:08;;;;;;;23.33;14.85;;;;;;;;;;5028704;28;20053;-81
2021/10/27 12:41:35;;;;;;;23.20;14.65;;;;;;;;;;5033651;28;20084;-81
2021/10/27 12:44:17;;;;;;;22.48;14.73;;;;;;;;;;5017448;28;20091;-81
2021/10/27 12:46:43;;;;;;;22.05;13.23;;;;;;;;;;5035242;28;20053;-81
2021/10/27 12:49:18;;;;;;;21.10;14.23;;;;;;;;;;5035567;28;20068;-81
2021/10/27 12:51:48;;;;;;;21.40;14.57;;;;;;;;;;5035055;28;20076;-80
2021/10/27 12:54:14;;;;;;;19.65;13.25;;;;;;;;;;5034570;28;20046;-80
2021/10/27 12:56:41;;;;;;;19.88;12.75;;;;;;;;;;5034770;28;20052;-81
2021/10/27 12:59:11;;;;;;;22.33;13.55;;;;;;;;;;5033785;28;20056;-81
2021/10/27 13:01:41;;;;;;;17.38;12.52;;;;;;;;;;5034575;28;20084;-80
2021/10/27 13:04:18;;;;;;;19.73;12.82;;;;;;;;;;5034580;28;20390;-80
2021/10/27 13:07:04;;;;;;;20.55;12.70;;;;;;;;;;5026988;28;20049;-81
2021/10/27 13:10:00;;;;;;;19.23;13.27;;;;;;;;;;5034332;28;20064;-80
2021/10/27 13:15:16;;;;;;;20.85;13.27;;;;;;;;;;5031938;28;20445;-81
2021/10/27 13:23:42;;;;;;;19.23;13.20;;;;;;;;;;5026808;28;20459;-81
2021/10/27 13:31:46;;;;;;;21.35;14.43;;;;;;;;;;4987477;28;20172;-80
2021/10/27 13:34:13;;;;;;;20.65;13.05;;;;;;;;;;5034699;28;20050;-81
2021/10/27 13:36:39;;;;;;;20.88;13.65;;;;;;;;;;5034197;28;20076;-81
2021/10/27 13:39:07;;;;;;;21.27;14.23;;;;;;;;;;5029942;28;20042;-81
2021/10/27 13:41:34;;;;;;;23.48;14.43;;;;;;;;;;5033808;28;20154;-81
2021/10/27 13:44:07;;;;;;;20.73;15.13;;;;;;;;;;5034285;28;20058;-81
2021/10/27 13:46:52;;;;;;;22.75;14.70;;;;;;;;;;5028387;28;20057;-81
2021/10/27 13:49:48;;;;;;;23.80;15.48;;;;;;;;;;5035142;28;20049;-81
2021/10/27 13:57:54;;;;;;;20.65;14.05;;;;;;;;;;4972869;28;20042;-81
2021/10/27 14:06:05;;;;;;;20.42;13.63;;;;;;;;;;5027032;28;20064;-81
2021/10/27 14:08:42;;;;;;;20.70;13.00;;;;;;;;;;5038423;28;20088;-81
2021/10/27 14:11:15;;;;;;;19.92;12.85;;;;;;;;;;5037196;28;20490;-81
2021/10/27 14:13:57;;;;;;;19.58;13.57;;;;;;;;;;5038859;28;20111;-81
2021/10/27 15:19:41;;;;;;;31.50;17.70;;;;;;;;;;5036856;28;20064;-79
2021/10/27 15:22:13;;;;;;;29.20;18.05;;;;;;;;;;5036146;28;20037;-79
2021/10/27 15:25:02;;;;;;;29.02;18.30;;;;;;;;;;5036160;28;20172;-79
2021/10/27 15:27:48;;;;;;;30.98;18.08;;;;;;;;;;5035548;28;20140;-79
2021/10/27 15:33:13;;;;;;;;;;;;;;;;;;5024000;28;20072;-79
2021/10/27 15:36:05;;;;;;;32.47;18.85;;;;;;;;;;5036229;28;19990;-78
2021/10/27 15:41:26;;;;;;;32.17;20.05;;;;;;;;;;5033379;28;20080;-79
2021/10/27 15:44:13;;;;;;;30.20;18.25;;;;;;;;;;5030246;28;20046;-79
2021/10/27 15:52:14;;;;;;;29.67;18.88;;;;;;;;;;5029052;28;20032;-79
2021/10/27 15:54:43;;;;;;;30.48;19.95;;;;;;;;;;5030965;28;20581;-78
2021/10/27 15:57:10;;;;;;;32.10;19.38;;;;;;;;;;5029170;28;20049;-78
2021/10/27 15:59:37;;;;;;;30.73;19.63;;;;;;;;;;5032085;28;20120;-79
2021/10/27 16:02:04;;;;;;;33.95;20.10;;;;;;;;;;5033553;28;20075;-79
2021/10/27 16:04:32;;;;;;;35.97;19.65;;;;;;;;;;5033170;28;20103;-79
2021/10/27 16:07:00;;;;;;;31.40;18.45;;;;;;;;;;5029943;28;20949;-80
2021/10/27 16:09:29;;;;;;;30.85;18.58;;;;;;;;;;5034051;28;20135;-79
2021/10/27 16:11:56;;;;;;;33.08;19.77;;;;;;;;;;5032208;28;20068;-79
2021/10/27 16:14:24;;;;;;;26.45;16.77;;;;;;;;;;5030734;28;20067;-79
2021/10/27 16:16:51;;;;;;;29.17;18.48;;;;;;;;;;5032864;28;20962;-79
2021/10/27 16:19:17;;;;;;;31.45;18.35;;;;;;;;;;5034671;28;20041;-78
2021/10/27 16:21:45;;;;;;;46.50;25.45;;;;;;;;;;5032337;28;20038;-79
2021/10/27 16:24:12;;;;;;;42.45;25.23;;;;;;;;;;5033068;28;20053;-79
2021/10/27 16:26:38;;;;;;;39.40;22.17;;;;;;;;;;5028603;28;20045;-80
2021/10/27 16:29:05;;;;;;;45.17;24.98;;;;;;;;;;5036076;28;20052;-81
2021/10/27 16:31:31;;;;;;;42.55;24.92;;;;;;;;;;5035815;28;20477;-80
2021/10/27 16:33:58;;;;;;;34.75;22.23;;;;;;;;;;5031838;28;20052;-80
2021/10/27 16:36:25;;;;;;;34.03;20.63;;;;;;;;;;5033371;28;20552;-81
2021/10/27 16:38:52;;;;;;;28.92;18.35;;;;;;;;;;5031544;28;20052;-81
2021/10/27 16:41:19;;;;;;;31.45;18.95;;;;;;;;;;5035134;28;20046;-81
2021/10/27 16:43:46;;;;;;;36.03;24.90;;;;;;;;;;5030767;28;20060;-81
2021/10/27 16:46:13;;;;;;;40.63;24.27;;;;;;;;;;5029492;28;20106;-81
2021/10/27 16:48:40;;;;;;;37.45;21.50;;;;;;;;;;5031946;28;20049;-81
2021/10/27 16:51:07;;;;;;;37.95;23.83;;;;;;;;;;5030598;28;20605;-81
2021/10/27 16:53:34;;;;;;;36.67;20.23;;;;;;;;;;5029714;28;20053;-81
2021/10/27 16:56:04;;;;;;;32.83;20.10;;;;;;;;;;5031553;28;20052;-81
2021/10/27 16:58:31;;;;;;;33.55;20.90;;;;;;;;;;5030550;28;20056;-81
2021/10/27 17:00:58;;;;;;;33.10;20.25;;;;;;;;;;5027361;28;20383;-81
2021/10/27 17:03:25;;;;;;;40.33;22.35;;;;;;;;;;5030315;28;20069;-81
2021/10/27 17:05:52;;;;;;;40.67;21.70;;;;;;;;;;5029881;28;20077;-79
2021/10/27 17:08:20;;;;;;;38.33;21.80;;;;;;;;;;5031160;28;20041;-78
2021/10/27 17:10:49;;;;;;;39.90;21.77;;;;;;;;;;5026622;28;20093;-79
2021/10/27 17:13:17;;;;;;;36.20;21.73;;;;;;;;;;5030054;28;20220;-80
2021/10/27 17:15:44;;;;;;;46.92;25.15;;;;;;;;;;5031779;28;20092;-81
2021/10/27 17:18:10;;;;;;;41.22;22.02;;;;;;;;;;5032130;28;20053;-80
2021/10/27 17:20:37;;;;;;;40.40;23.95;;;;;;;;;;5030313;28;20055;-79
2021/10/27 17:23:04;;;;;;;44.30;23.80;;;;;;;;;;5029075;28;20041;-79
2021/10/27 17:25:32;;;;;;;37.97;20.95;;;;;;;;;;5031979;28;20140;-79
2021/10/27 17:27:59;;;;;;;43.63;22.20;;;;;;;;;;5034581;28;20047;-79
2021/10/27 17:30:27;;;;;;;43.90;22.75;;;;;;;;;;5035794;28;20041;-79
2021/10/27 17:32:55;;;;;;;40.88;21.88;;;;;;;;;;5035001;28;20041;-79
2021/10/27 17:35:22;;;;;;;45.10;24.40;;;;;;;;;;5034500;28;20152;-80
2021/10/27 17:37:50;;;;;;;38.88;22.58;;;;;;;;;;5032939;28;20057;-80
2021/10/27 17:40:24;;;;;;;43.40;23.52;;;;;;;;;;5032006;28;20053;-79
2021/10/27 17:42:51;;;;;;;45.33;23.70;;;;;;;;;;5017114;28;20046;-80
2021/10/27 17:45:21;;;;;;;41.88;21.95;;;;;;;;;;5034776;28;20731;-80
2021/10/27 17:47:53;;;;;;;50.92;26.05;;;;;;;;;;5035665;28;20108;-80
2021/10/27 17:50:50;;;;;;;51.85;26.00;;;;;;;;;;5034057;28;20045;-80
2021/10/27 17:58:56;;;;;;;50.53;25.45;;;;;;;;;;5032186;28;20472;-80
2021/10/27 18:01:23;;;;;;;52.85;29.17;;;;;;;;;;5029761;28;20049;-80
2021/10/27 18:03:51;;;;;;;62.03;30.15;;;;;;;;;;5032604;28;20046;-80
2021/10/27 18:06:18;;;;;;;75.65;35.70;;;;;;;;;;5016007;28;20072;-81
2021/10/27 18:08:50;;;;;;;56.13;29.67;;;;;;;;;;5032965;28;20477;-80
2021/10/27 18:11:19;;;;;;;59.85;29.67;;;;;;;;;;5033074;28;20042;-81
2021/10/27 18:13:48;;;;;;;68.28;32.92;;;;;;;;;;5031681;28;20132;-81
2021/10/27 18:16:20;;;;;;;56.08;26.90;;;;;;;;;;5031617;28;20586;-81
2021/10/27 18:18:52;;;;;;;62.05;29.65;;;;;;;;;;5031975;28;20037;-80
2021/10/27 18:21:24;;;;;;;74.65;35.42;;;;;;;;;;5030395;28;20073;-80